createdAt,value
2024-05-09T00:01:59.433Z,68.74
2024-05-09T00:06:59.319Z,68.87
2024-05-09T00:11:59.430Z,71.66
2024-05-09T00:16:59.301Z,71.49
2024-05-09T00:21:59.140Z,73.54
2024-05-09T00:26:59.073Z,73.78
2024-05-09T00:31:59.090Z,74.94
2024-05-09T00:36:58.916Z,75.65
2024-05-09T00:41:58.861Z,76.37
2024-05-09T00:46:58.853Z,77.80
2024-05-09T00:51:58.744Z,78.35
2024-05-09T00:56:58.668Z,78.25
2024-05-09T01:01:58.651Z,79.45
2024-05-09T01:06:58.529Z,80.47
2024-05-09T01:11:58.610Z,81.71
2024-05-09T01:16:58.645Z,81.85
2024-05-09T01:21:58.328Z,82.56
2024-05-09T01:26:58.257Z,83.07
2024-05-09T01:31:58.254Z,84.14
2024-05-09T01:36:58.126Z,84.66
2024-05-09T01:41:58.070Z,85.31
2024-05-09T01:46:58.056Z,85.72
2024-05-09T01:51:57.977Z,86.33
2024-05-09T01:56:57.895Z,86.99
2024-05-09T02:01:58.118Z,87.71
2024-05-09T02:06:57.758Z,88.78
2024-05-09T02:11:57.821Z,88.89
2024-05-09T02:16:57.676Z,89.03
2024-05-09T02:21:57.565Z,89.44
2024-05-09T02:26:57.494Z,90.00
2024-05-09T02:31:57.507Z,91.02
2024-05-09T02:36:57.368Z,91.53
2024-05-09T02:41:57.297Z,92.61
2024-05-09T02:46:57.285Z,92.92
2024-05-09T02:51:57.188Z,93.33
2024-05-09T02:56:58.003Z,93.02
2024-05-09T03:01:57.136Z,93.31
2024-05-09T03:06:56.972Z,94.49
2024-05-09T03:11:57.190Z,95.31
2024-05-09T03:16:56.905Z,95.93
2024-05-09T03:21:56.774Z,95.68
2024-05-09T03:26:56.694Z,95.93
2024-05-09T03:31:56.718Z,95.99
2024-05-09T03:36:56.576Z,96.15
2024-05-09T03:41:56.502Z,95.48
2024-05-09T03:46:56.470Z,95.12
2024-05-09T03:51:56.355Z,94.71
2024-05-09T03:56:56.281Z,94.56
2024-05-09T04:01:56.450Z,93.99
2024-05-09T04:06:56.224Z,94.56
2024-05-09T04:11:56.271Z,94.46
2024-05-09T04:16:56.068Z,93.95
2024-05-09T04:21:55.959Z,94.52
2024-05-09T04:26:55.896Z,94.02
2024-05-09T04:31:55.918Z,90.54
2024-05-09T04:36:55.760Z,77.47
2024-05-09T04:41:55.696Z,68.46
2024-05-09T04:46:55.648Z,63.92
2024-05-09T04:51:55.565Z,59.70
2024-05-09T04:56:55.529Z,56.49
2024-05-09T05:01:55.563Z,55.13
2024-05-09T05:06:56.033Z,53.75
2024-05-09T05:11:55.437Z,52.57
2024-05-09T05:16:55.312Z,51.14
2024-05-09T05:21:55.213Z,50.63
2024-05-09T05:26:55.140Z,50.56
2024-05-09T05:31:55.253Z,48.81
2024-05-09T05:36:54.999Z,49.07
2024-05-09T05:41:54.945Z,48.22
2024-05-09T05:46:54.936Z,46.54
2024-05-09T05:51:54.821Z,48.11
2024-05-09T05:56:55.742Z,46.87
2024-05-09T06:01:54.800Z,44.89
2024-05-09T06:06:54.639Z,43.95
2024-05-09T06:11:54.804Z,42.69
2024-05-09T06:16:57.700Z,41.53
2024-05-09T06:21:54.447Z,42.63
2024-05-09T06:26:54.375Z,42.21
2024-05-09T06:31:55.902Z,40.46
2024-05-09T06:36:54.304Z,41.20
2024-05-09T06:41:54.229Z,40.20
2024-05-09T06:46:57.065Z,41.50
2024-05-09T06:51:54.085Z,40.46
2024-05-09T06:56:54.026Z,40.24
2024-05-09T07:01:53.982Z,39.51
2024-05-09T07:06:53.886Z,39.07
2024-05-09T07:11:53.968Z,38.40
2024-05-09T07:16:53.967Z,39.09
2024-05-09T07:21:53.708Z,39.45
2024-05-09T07:26:53.643Z,40.64
2024-05-09T07:31:53.635Z,38.96
2024-05-09T07:36:53.521Z,39.17
2024-05-09T07:41:53.468Z,39.63
2024-05-09T07:48:13.681Z,38.44
2024-05-09T07:53:21.677Z,37.59
2024-05-09T07:56:55.041Z,38.20
2024-05-09T08:01:53.300Z,38.28
2024-05-09T08:06:53.191Z,37.34
2024-05-09T08:11:53.167Z,40.02
2024-05-09T08:16:53.155Z,41.83
2024-05-09T08:21:52.976Z,41.97
2024-05-09T08:26:52.904Z,39.39
2024-05-09T08:31:52.876Z,41.87
2024-05-09T08:36:52.838Z,41.83
2024-05-09T08:41:53.443Z,41.16
2024-05-09T08:46:52.648Z,40.94
2024-05-09T08:51:52.634Z,41.39
2024-05-09T08:56:52.533Z,39.50
2024-05-09T09:01:52.613Z,41.91
2024-05-09T09:06:53.216Z,39.83
2024-05-09T09:11:52.410Z,42.10
2024-05-09T09:16:52.304Z,39.50
2024-05-09T09:21:52.295Z,41.31
2024-05-09T09:26:52.189Z,44.52
2024-05-09T09:31:52.102Z,43.98
2024-05-09T09:36:52.050Z,43.28
2024-05-09T09:41:51.976Z,44.81
2024-05-09T09:46:52.012Z,41.93
2024-05-09T09:51:51.939Z,42.19
2024-05-09T09:56:51.779Z,43.22
2024-05-09T10:01:51.890Z,43.27
2024-05-09T10:06:51.726Z,40.63
2024-05-09T10:11:52.450Z,40.83
2024-05-09T10:16:52.486Z,42.82
2024-05-09T10:21:51.463Z,44.90
2024-05-09T10:26:51.366Z,44.68
2024-05-09T10:31:51.377Z,43.48
2024-05-09T10:36:51.284Z,42.03
2024-05-09T10:41:51.196Z,43.71
2024-05-09T10:46:51.136Z,42.90
2024-05-09T10:51:51.088Z,42.90
2024-05-09T10:56:50.991Z,42.72
2024-05-09T11:01:51.141Z,40.19
2024-05-09T11:06:50.891Z,41.75
2024-05-09T11:11:50.856Z,42.63
2024-05-09T11:16:50.719Z,42.49
2024-05-09T11:21:50.736Z,44.56
2024-05-09T11:26:50.591Z,45.42
2024-05-09T11:31:50.594Z,42.60
2024-05-09T11:36:50.565Z,42.69
2024-05-09T11:41:50.425Z,43.66
2024-05-09T11:46:50.340Z,43.44
2024-05-09T11:51:51.341Z,42.40
2024-05-09T11:56:50.195Z,40.67
2024-05-09T12:01:50.388Z,40.73
2024-05-09T12:06:50.114Z,40.93
2024-05-09T12:11:50.051Z,42.02
2024-05-09T12:16:50.013Z,42.72
2024-05-09T12:21:49.976Z,43.48
2024-05-09T12:26:49.802Z,43.44
2024-05-09T12:31:49.797Z,42.99
2024-05-09T12:36:49.701Z,43.19
2024-05-09T12:41:49.623Z,43.90
2024-05-09T12:46:49.562Z,43.77
2024-05-09T12:51:49.551Z,43.05
2024-05-09T12:56:49.418Z,43.10
2024-05-09T13:01:49.490Z,42.02
2024-05-09T13:06:49.525Z,43.74
2024-05-09T13:11:49.348Z,42.21
2024-05-09T13:16:49.207Z,44.50
2024-05-09T13:21:49.187Z,41.69
2024-05-09T13:26:49.010Z,42.11
2024-05-09T13:31:48.961Z,43.70
2024-05-09T13:36:48.958Z,43.96
2024-05-09T13:41:48.817Z,42.46
2024-05-09T13:46:48.825Z,43.84
2024-05-09T13:51:48.781Z,43.18
2024-05-09T13:56:48.631Z,42.55
2024-05-09T14:01:48.690Z,43.16
2024-05-09T14:06:48.523Z,42.38
2024-05-09T14:11:48.490Z,43.02
2024-05-09T14:16:48.458Z,42.49
2024-05-09T14:21:48.330Z,43.19
2024-05-09T14:26:48.230Z,42.69
2024-05-09T14:31:48.217Z,43.04
2024-05-09T14:36:48.120Z,43.76
2024-05-09T14:41:48.091Z,46.25
2024-05-09T14:46:48.026Z,43.54
2024-05-09T14:51:47.970Z,46.25
2024-05-09T14:56:47.849Z,44.42
2024-05-09T15:01:47.849Z,42.32
2024-05-09T15:06:47.821Z,44.62
2024-05-09T15:11:47.778Z,43.22
2024-05-09T15:16:47.587Z,44.12
2024-05-09T15:21:47.570Z,43.24
2024-05-09T15:26:47.451Z,45.37
2024-05-09T15:31:47.437Z,43.34
2024-05-09T15:36:47.343Z,42.94
2024-05-09T15:41:47.245Z,42.94
2024-05-09T15:46:47.259Z,43.36
2024-05-09T15:51:47.137Z,44.06
2024-05-09T15:56:47.054Z,44.36
2024-05-09T16:01:47.099Z,42.96
2024-05-09T16:06:46.935Z,43.56
2024-05-09T16:11:46.887Z,45.06
2024-05-09T16:16:46.945Z,42.76
2024-05-09T16:21:46.799Z,44.06
2024-05-09T16:26:46.664Z,44.08
2024-05-09T16:31:46.596Z,43.78
2024-05-09T16:36:46.591Z,43.88
2024-05-09T16:41:46.456Z,43.58
2024-05-09T16:46:46.495Z,45.37
2024-05-09T16:51:46.355Z,43.56
2024-05-09T16:56:46.277Z,43.68
2024-05-09T17:01:46.382Z,44.48
2024-05-09T17:06:46.161Z,49.13
2024-05-09T17:11:46.218Z,45.61
2024-05-09T17:16:46.061Z,45.63
2024-05-09T17:21:45.969Z,46.31
2024-05-09T17:26:45.881Z,46.11
2024-05-09T17:31:45.802Z,46.44
2024-05-09T17:36:45.766Z,45.55
2024-05-09T17:41:45.700Z,46.36
2024-05-09T17:46:45.604Z,45.45
2024-05-09T17:51:45.584Z,46.78
2024-05-09T17:56:45.476Z,47.91
2024-05-09T18:01:45.582Z,50.15
2024-05-09T18:06:45.378Z,49.77
2024-05-09T18:11:45.309Z,51.20
2024-05-09T18:16:45.209Z,51.53
2024-05-09T18:21:45.255Z,52.26
2024-05-09T18:26:45.079Z,53.00
2024-05-09T18:31:45.018Z,53.72
2024-05-09T18:36:44.958Z,54.25
2024-05-09T18:41:44.889Z,54.86
2024-05-09T18:46:44.810Z,55.93
2024-05-09T18:51:44.827Z,56.43
2024-05-09T18:56:44.708Z,57.07
2024-05-09T19:01:44.743Z,57.07
2024-05-09T19:06:44.599Z,57.37
2024-05-09T19:11:44.510Z,57.67
2024-05-09T19:16:44.440Z,59.32
2024-05-09T19:21:44.403Z,60.26
2024-05-09T19:26:44.307Z,61.58
2024-05-09T19:31:44.375Z,62.92
2024-05-09T19:36:44.478Z,64.17
2024-05-09T19:41:44.077Z,65.24
2024-05-09T19:46:44.013Z,67.50
2024-05-09T19:51:44.070Z,68.25
2024-05-09T19:56:43.898Z,70.38
2024-05-09T20:01:44.078Z,71.33
2024-05-09T20:06:44.190Z,72.69
2024-05-09T20:11:43.709Z,74.04
2024-05-09T20:16:43.702Z,74.08
2024-05-09T20:21:43.605Z,74.32
2024-05-09T20:26:43.486Z,73.80
2024-05-09T20:31:43.447Z,73.71
2024-05-09T20:36:43.431Z,74.21
2024-05-09T20:41:43.297Z,74.76
2024-05-09T20:46:43.223Z,75.16
2024-05-09T20:51:43.183Z,75.60
2024-05-09T20:56:43.122Z,77.03
2024-05-09T21:01:44.935Z,77.55
2024-05-09T21:06:43.071Z,77.78
2024-05-09T21:11:43.009Z,78.19
2024-05-09T21:16:42.912Z,77.07
2024-05-09T21:21:43.027Z,77.68
2024-05-09T21:26:42.714Z,77.58
2024-05-09T21:31:42.634Z,77.17
2024-05-09T21:36:42.596Z,77.72
2024-05-09T21:41:42.509Z,78.53
2024-05-09T21:46:42.528Z,79.49
2024-05-09T21:51:42.403Z,79.80
2024-05-09T21:56:42.321Z,80.14
2024-05-09T22:01:42.315Z,80.18
2024-05-09T22:06:42.187Z,80.18
2024-05-09T22:11:42.154Z,80.89
2024-05-09T22:16:42.035Z,81.91
2024-05-09T22:21:42.273Z,82.53
2024-05-09T22:26:41.906Z,82.42
2024-05-09T22:31:41.843Z,82.22
2024-05-09T22:36:41.805Z,82.67
2024-05-09T22:41:41.732Z,83.69
2024-05-09T22:46:41.688Z,83.38
2024-05-09T22:51:41.574Z,83.18
2024-05-09T22:56:41.514Z,83.89
2024-05-09T23:01:41.578Z,83.69
2024-05-09T23:06:41.408Z,84.24
2024-05-09T23:11:41.340Z,84.75
2024-05-09T23:16:41.261Z,84.99
2024-05-09T23:21:41.280Z,85.20
2024-05-09T23:26:41.126Z,85.30
2024-05-09T23:31:41.051Z,85.91
2024-05-09T23:36:41.012Z,85.96
2024-05-09T23:41:40.920Z,86.77
2024-05-09T23:46:41.063Z,88.35
2024-05-09T23:51:40.810Z,88.45
2024-05-09T23:56:41.009Z,88.59
